| time (UTC) | temp F | wind direction | speed knots | gust knots | rain 1hr in | rain 24hr in | rain mn in | humidity % | barometer mb |
| 20260906103430 | 70 | 148 | 5.2 | 7.8 | 0.00 | 0.00 | 0.00 | 52 | 1025.3 |
| 20260906102930 | 70 | 130 | 2.6 | 12.2 | 0.00 | 0.00 | 0.00 | 53 | 1025.3 |
| 20260906102428 | 70 | 155 | 7.0 | 12.2 | 0.00 | 0.00 | 0.00 | 52 | 1025.4 |
| 20260906101928 | 70 | 172 | 7.0 | 11.3 | 0.00 | 0.00 | 0.00 | 54 | 1025.5 |
| 20260906101428 | 69 | 148 | 4.3 | 7.8 | 0.00 | 0.00 | 0.00 | 55 | 1025.4 |
| 20260906101314 | 69 | 144 | 3.5 | 7.8 | 0.00 | 0.00 | 0.00 | 55 | 1025.4 |
| 20260906100429 | 68 | 164 | 2.6 | 8.7 | 0.00 | 0.00 | 0.00 | 55 | 1025.6 |
| 20260906095929 | 68 | 140 | 3.5 | 11.3 | 0.00 | 0.00 | 0.00 | 55 | 1025.6 |
| 20260906095430 | 68 | 161 | 6.1 | 11.3 | 0.00 | 0.00 | 0.00 | 54 | 1025.8 |
| 20260906094928 | 69 | 172 | 7.0 | 11.3 | 0.00 | 0.00 | 0.00 | 53 | 1025.8 |
| 20260906094429 | 69 | 168 | 6.1 | 13.9 | 0.00 | 0.00 | 0.00 | 56 | 1025.6 |
| 20260906093927 | 68 | 155 | 8.7 | 13.9 | 0.00 | 0.00 | 0.00 | 55 | 1025.7 |
| 20260906093428 | 69 | 85 | 5.2 | 9.6 | 0.00 | 0.00 | 0.00 | 56 | 1025.7 |
| 20260906092928 | 69 | 134 | 5.2 | 8.7 | 0.00 | 0.00 | 0.00 | 57 | 1025.6 |
| 20260906092427 | 68 | 172 | 2.6 | 9.6 | 0.00 | 0.00 | 0.00 | 59 | 1025.5 |
| 20260906091924 | 67 | 169 | 4.3 | 12.2 | 0.00 | 0.00 | 0.00 | 59 | 1025.7 |
| 20260906091425 | 67 | 137 | 6.1 | 12.2 | 0.00 | 0.00 | 0.00 | 59 | 1025.8 |
| 20260906090925 | 67 | 149 | 5.2 | 10.4 | 0.00 | 0.00 | 0.00 | 60 | 1026.0 |
| 20260906090422 | 67 | 142 | 6.1 | 10.4 | 0.00 | 0.00 | 0.00 | 59 | 1026.0 |
| 20260906085919 | 67 | 164 | 3.5 | 9.6 | 0.00 | 0.00 | 0.00 | 62 | 1026.0 |
| 20260906085419 | 67 | 183 | 7.0 | 9.6 | 0.00 | 0.00 | 0.00 | 60 | 1026.0 |
| 20260906084919 | 67 | 151 | 5.2 | 9.6 | 0.00 | 0.00 | 0.00 | 61 | 1026.0 |
| 20260906084417 | 66 | 155 | 3.5 | 10.4 | 0.00 | 0.00 | 0.00 | 62 | 1026.0 |
| 20260906083932 | 66 | 155 | 4.3 | 10.4 | 0.00 | 0.00 | 0.00 | 62 | 1026.0 |
| 20260906083418 | 66 | 120 | 2.6 | 10.4 | 0.00 | 0.00 | 0.00 | 65 | 1026.0 |
| 20260906082929 | 65 | 147 | 5.2 | 10.4 | 0.00 | 0.00 | 0.00 | 64 | 1025.8 |
| 20260906082416 | 65 | 172 | 5.2 | 9.6 | 0.00 | 0.00 | 0.00 | 65 | 1026.0 |
| 20260906081913 | 65 | 144 | 5.2 | 9.6 | 0.00 | 0.00 | 0.00 | 66 | 1025.9 |
| 20260906081413 | 65 | 137 | 2.6 | 7.8 | 0.00 | 0.00 | 0.00 | 69 | 1025.8 |
| 20260906080915 | 64 | 149 | 3.5 | 7.8 | 0.00 | 0.00 | 0.00 | 68 | 1026.0 |
| 20260906080407 | 64 | 145 | 0.9 | 6.1 | 0.00 | 0.00 | 0.00 | 70 | 1026.0 |
| 20260906075904 | 63 | 161 | 2.6 | 6.1 | 0.00 | 0.00 | 0.00 | 70 | 1026.0 |
| 20260906075404 | 63 | 157 | 0.0 | 6.1 | 0.00 | 0.00 | 0.00 | 72 | 1026.0 |
| 20260906074903 | 63 | 152 | 2.6 | 6.1 | 0.00 | 0.00 | 0.00 | 71 | 1026.1 |
| 20260906074404 | 62 | 120 | 0.9 | 3.5 | 0.00 | 0.00 | 0.00 | 72 | 1026.0 |
| 20260906073904 | 62 | 127 | 0.9 | 3.5 | 0.00 | 0.00 | 0.00 | 73 | 1026.2 |
| 20260906073407 | 62 | 152 | 0.9 | 6.1 | 0.00 | 0.00 | 0.00 | 74 | 1026.1 |
| 20260906072903 | 61 | 157 | 3.5 | 6.1 | 0.00 | 0.00 | 0.00 | 75 | 1026.2 |
| 20260906072404 | 60 | 172 | 3.5 | 6.1 | 0.00 | 0.00 | 0.00 | 75 | 1026.1 |
| 20260906071903 | 60 | 152 | 4.3 | 6.1 | 0.00 | 0.00 | 0.00 | 76 | 1026.2 |
| 20260906071405 | 60 | 154 | 1.7 | 5.2 | 0.00 | 0.00 | 0.00 | 76 | 1026.2 |
| 20260906070903 | 60 | 149 | 4.3 | 5.2 | 0.00 | 0.00 | 0.00 | 77 | 1026.1 |
| 20260906070754 | 60 | 134 | 0.9 | 4.3 | 0.00 | 0.00 | 0.00 | 78 | 1026.1 |
| 20260906070252 | 59 | 144 | 1.7 | 4.3 | 0.00 | 0.00 | 0.00 | 79 | 1026.2 |
| 20260906065404 | 59 | 165 | 0.0 | 0.0 | 0.00 | 0.00 | 0.00 | 81 | 1026.3 |
| 20260906064903 | 58 | 165 | 0.0 | 0.0 | 0.00 | 0.00 | 0.00 | 82 | 1026.3 |
| 20260906064405 | 57 | 165 | 0.0 | 3.5 | 0.00 | 0.00 | 0.00 | 83 | 1026.1 |
| 20260906063903 | 56 | 165 | 0.9 | 3.5 | 0.00 | 0.00 | 0.00 | 85 | 1026.2 |
| 20260906063751 | 56 | 165 | 1.7 | 3.5 | 0.00 | 0.00 | 0.00 | 85 | 1026.1 |
| 20260906063144 | 54 | 252 | 0.0 | 0.0 | 0.00 | 0.00 | 0.00 | 88 | 1026.4 |
| 20260906063029 | 0 | 254 | 0.0 | 0.0 | 0.00 | 0.00 | 0.00 | 1026.2 | |
| 20260906061905 | 53 | 254 | 0.0 | 0.0 | 0.00 | 0.00 | 0.00 | 90 | 1026.2 |
| 20260906061753 | 53 | 254 | 0.0 | 0.0 | 0.00 | 0.00 | 0.00 | 90 | 1026.3 |
| 20260906060904 | 52 | 254 | 0.0 | 0.0 | 0.00 | 0.00 | 0.00 | 90 | 1026.3 |
| 20260906060404 | 52 | 254 | 0.0 | 0.0 | 0.00 | 0.00 | 0.00 | 91 | 1026.2 |
| 20260906055903 | 51 | 254 | 0.0 | 0.0 | 0.00 | 0.00 | 0.00 | 91 | 1026.1 |
| 20260906055404 | 50 | 254 | 0.0 | 0.0 | 0.00 | 0.00 | 0.00 | 91 | 1026.1 |
| 20260906054903 | 50 | 254 | 0.0 | 0.0 | 0.00 | 0.00 | 0.00 | 91 | 1026.1 |
| 20260906054406 | 49 | 254 | 0.0 | 0.0 | 0.00 | 0.00 | 0.00 | 91 | 1026.3 |
| 20260906053904 | 49 | 254 | 0.0 | 0.0 | 0.00 | 0.00 | 0.00 | 91 | 1026.4 |
| 20260906053407 | 49 | 254 | 0.0 | 0.0 | 0.00 | 0.00 | 0.00 | 91 | 1026.4 |
| 20260906052904 | 48 | 254 | 0.0 | 0.0 | 0.00 | 0.00 | 0.00 | 91 | 1026.2 |
| 20260906052403 | 48 | 254 | 0.0 | 0.0 | 0.00 | 0.00 | 0.00 | 90 | 1026.3 |
| 20260906051904 | 48 | 254 | 0.0 | 0.0 | 0.00 | 0.00 | 0.00 | 90 | 1026.3 |
| 20260906051405 | 48 | 254 | 0.0 | 0.0 | 0.00 | 0.00 | 0.00 | 90 | 1026.3 |
| 20260906050905 | 48 | 254 | 0.0 | 0.0 | 0.00 | 0.00 | 0.00 | 90 | 1026.1 |
| 20260906050405 | 48 | 254 | 0.0 | 0.0 | 0.00 | 0.00 | 0.00 | 90 | 1026.2 |
| 20260906045907 | 48 | 254 | 0.0 | 0.0 | 0.00 | 0.00 | 0.00 | 90 | 1026.1 |
| 20260906045748 | 48 | 254 | 0.0 | 0.0 | 0.00 | 0.00 | 0.00 | 90 | 1026.1 |
| 20260906044905 | 48 | 254 | 0.0 | 0.0 | 0.00 | 0.00 | 0.00 | 90 | 1026.0 |
| 20260906044405 | 48 | 254 | 0.0 | 0.0 | 0.00 | 0.00 | 0.00 | 90 | 1026.1 |
| 20260906043905 | 48 | 254 | 0.0 | 0.0 | 0.00 | 0.00 | 0.00 | 90 | 1026.2 |
| 20260906043405 | 48 | 254 | 0.0 | 0.0 | 0.00 | 0.00 | 0.00 | 90 | 1026.3 |
| 20260906042904 | 48 | 254 | 0.0 | 0.0 | 0.00 | 0.00 | 0.00 | 90 | 1026.4 |
| 20260906042405 | 48 | 254 | 0.0 | 0.0 | 0.00 | 0.00 | 0.00 | 90 | 1026.3 |
| 20260906042148 | 48 | 254 | 0.0 | 0.0 | 0.00 | 0.00 | 0.00 | 90 | 1026.3 |
| 20260906042031 | 48 | 254 | 0.0 | 0.0 | 0.00 | 0.00 | 0.00 | 90 | 1026.2 |
| 20260906041247 | 48 | 254 | 0.0 | 0.0 | 0.00 | 0.00 | 0.00 | 90 | 1026.2 |
| 20260906040405 | 48 | 254 | 0.0 | 0.0 | 0.00 | 0.00 | 0.00 | 90 | 1026.4 |
| 20260906035904 | 48 | 254 | 0.0 | 0.0 | 0.00 | 0.00 | 0.00 | 90 | 1026.3 |
| 20260906035753 | 48 | 254 | 0.0 | 0.0 | 0.00 | 0.00 | 0.00 | 90 | 1026.4 |
| 20260906034904 | 48 | 254 | 0.0 | 0.0 | 0.00 | 0.00 | 0.00 | 90 | 1026.5 |
| 20260906034404 | 48 | 254 | 0.0 | 0.0 | 0.00 | 0.00 | 0.00 | 90 | 1026.5 |
| 20260906033904 | 48 | 254 | 0.0 | 0.0 | 0.00 | 0.00 | 0.00 | 90 | 1026.7 |
| 20260906033404 | 48 | 254 | 0.0 | 0.0 | 0.00 | 0.00 | 0.00 | 90 | 1026.8 |
| 20260906032904 | 48 | 254 | 0.0 | 0.0 | 0.00 | 0.00 | 0.00 | 90 | 1026.6 |
| 20260906032404 | 48 | 254 | 0.0 | 0.0 | 0.00 | 0.00 | 0.00 | 90 | 1026.8 |
| 20260906031904 | 48 | 254 | 0.0 | 0.0 | 0.00 | 0.00 | 0.00 | 90 | 1026.8 |
| 20260906031405 | 48 | 254 | 0.0 | 0.0 | 0.00 | 0.00 | 0.00 | 90 | 1026.8 |
| 20260906030916 | 48 | 254 | 0.0 | 0.0 | 0.00 | 0.00 | 0.00 | 90 | 1026.8 |
| 20260906030404 | 49 | 254 | 0.0 | 0.0 | 0.00 | 0.00 | 0.00 | 90 | 1026.8 |
| 20260906025905 | 49 | 254 | 0.0 | 0.0 | 0.00 | 0.00 | 0.00 | 90 | 1026.7 |
| 20260906025409 | 49 | 254 | 0.0 | 0.0 | 0.00 | 0.00 | 0.00 | 90 | 1026.8 |
| 20260906024906 | 49 | 254 | 0.0 | 0.0 | 0.00 | 0.00 | 0.00 | 89 | 1026.7 |
| 20260906024406 | 49 | 254 | 0.0 | 0.0 | 0.00 | 0.00 | 0.00 | 90 | 1026.7 |
| 20260906024242 | 49 | 254 | 0.0 | 0.0 | 0.00 | 0.00 | 0.00 | 90 | 1026.8 |
| 20260906023405 | 49 | 254 | 0.0 | 0.0 | 0.00 | 0.00 | 0.00 | 89 | 1026.8 |
| 20260906022905 | 49 | 254 | 0.0 | 0.0 | 0.00 | 0.00 | 0.00 | 89 | 1026.9 |
| 20260906022405 | 49 | 254 | 0.0 | 0.0 | 0.00 | 0.00 | 0.00 | 90 | 1026.7 |
| 20260906021904 | 49 | 254 | 0.0 | 0.0 | 0.00 | 0.00 | 0.00 | 89 | 1026.8 |
| 20260906021404 | 49 | 254 | 0.0 | 0.0 | 0.00 | 0.00 | 0.00 | 89 | 1026.8 |
| 20260906021248 | 49 | 254 | 0.0 | 0.0 | 0.00 | 0.00 | 0.00 | 89 | 1027.0 |
| 20260906020407 | 49 | 254 | 0.0 | 0.0 | 0.00 | 0.00 | 0.00 | 89 | 1027.2 |
| 20260906015903 | 49 | 254 | 0.0 | 0.0 | 0.00 | 0.00 | 0.00 | 89 | 1027.2 |
| 20260906015403 | 49 | 254 | 0.0 | 0.0 | 0.00 | 0.00 | 0.00 | 89 | 1027.1 |
| 20260906014903 | 49 | 255 | 0.0 | 0.0 | 0.00 | 0.00 | 0.00 | 89 | 1027.2 |
| 20260906014750 | 49 | 255 | 0.0 | 0.0 | 0.00 | 0.00 | 0.00 | 89 | 1027.2 |
| 20260906013904 | 49 | 254 | 0.0 | 0.0 | 0.00 | 0.00 | 0.00 | 89 | 1027.2 |
| 20260906013403 | 50 | 254 | 0.0 | 2.6 | 0.00 | 0.00 | 0.00 | 89 | 1027.3 |
| 20260906012906 | 50 | 255 | 0.0 | 3.5 | 0.00 | 0.00 | 0.00 | 89 | 1027.1 |
| 20260906012404 | 49 | 255 | 1.7 | 3.5 | 0.00 | 0.00 | 0.00 | 89 | 1027.0 |
| 20260906011906 | 49 | 255 | 0.0 | 0.0 | 0.00 | 0.00 | 0.00 | 89 | 1026.9 |
| 20260906011418 | 50 | 255 | 0.0 | 0.0 | 0.00 | 0.00 | 0.00 | 89 | 1027.0 |
| 20260906011306 | 50 | 255 | 0.0 | 0.0 | 0.00 | 0.00 | 0.00 | 89 | 1026.8 |
| 20260906010403 | 50 | 255 | 0.0 | 0.0 | 0.00 | 0.00 | 0.00 | 89 | 1026.8 |
| 20260906005905 | 50 | 255 | 0.0 | 0.0 | 0.00 | 0.00 | 0.00 | 89 | 1026.8 |
| 20260906005404 | 50 | 255 | 0.0 | 0.0 | 0.00 | 0.00 | 0.00 | 89 | 1026.9 |
| 20260906004903 | 50 | 255 | 0.0 | 0.0 | 0.00 | 0.00 | 0.00 | 89 | 1026.9 |
| 20260906004740 | 50 | 255 | 0.0 | 0.0 | 0.00 | 0.00 | 0.00 | 88 | 1026.9 |
| 20260906003905 | 50 | 255 | 0.0 | 0.0 | 0.00 | 0.00 | 0.00 | 89 | 1026.9 |
| 20260906003403 | 50 | 255 | 0.0 | 0.0 | 0.00 | 0.00 | 0.00 | 88 | 1026.9 |
| 20260906002903 | 50 | 255 | 0.0 | 0.0 | 0.00 | 0.00 | 0.00 | 89 | 1027.0 |
| 20260906002405 | 50 | 255 | 0.0 | 0.0 | 0.00 | 0.00 | 0.00 | 89 | 1026.8 |
| 20260906001905 | 50 | 255 | 0.0 | 0.0 | 0.00 | 0.00 | 0.00 | 88 | 1026.9 |
| 20260906001746 | 50 | 255 | 0.0 | 0.0 | 0.00 | 0.00 | 0.00 | 88 | 1027.0 |
| 20260906000906 | 51 | 255 | 0.0 | 0.0 | 0.00 | 0.00 | 0.00 | 88 | 1027.0 |
| 20260906000405 | 51 | 255 | 0.0 | 0.0 | 0.00 | 0.00 | 0.00 | 88 | 1027.1 |
| 20260905235904 | 51 | 255 | 0.0 | 0.0 | 0.00 | 0.00 | 0.00 | 88 | 1027.0 |
| 20260905235405 | 51 | 255 | 0.0 | 0.0 | 0.00 | 0.00 | 0.00 | 88 | 1026.9 |
| 20260905234904 | 51 | 255 | 0.0 | 0.0 | 0.00 | 0.00 | 0.00 | 88 | 1026.7 |
| 20260905234403 | 51 | 255 | 0.0 | 0.0 | 0.00 | 0.00 | 0.00 | 88 | 1026.9 |
| 20260905233903 | 51 | 255 | 0.0 | 0.0 | 0.00 | 0.00 | 0.00 | 87 | 1026.8 |
| 20260905233407 | 51 | 255 | 0.0 | 0.0 | 0.00 | 0.00 | 0.00 | 87 | 1026.7 |
| 20260905232903 | 51 | 255 | 0.0 | 0.0 | 0.00 | 0.00 | 0.00 | 87 | 1026.6 |
| 20260905232404 | 51 | 255 | 0.0 | 0.0 | 0.00 | 0.00 | 0.00 | 88 | 1026.7 |
| 20260905232147 | 51 | 255 | 0.0 | 0.0 | 0.00 | 0.00 | 0.00 | 87 | 1026.7 |
| 20260905232035 | 51 | 255 | 0.0 | 0.0 | 0.00 | 0.00 | 0.00 | 88 | 1026.6 |
| 20260905230903 | 51 | 255 | 0.0 | 0.0 | 0.00 | 0.00 | 0.00 | 87 | 1026.6 |
| 20260905230405 | 52 | 255 | 0.0 | 0.0 | 0.00 | 0.00 | 0.00 | 87 | 1026.7 |
| 20260905225903 | 52 | 255 | 0.0 | 0.0 | 0.00 | 0.00 | 0.00 | 87 | 1026.6 |
| 20260905225403 | 52 | 255 | 0.0 | 0.0 | 0.00 | 0.00 | 0.00 | 87 | 1026.6 |
| 20260905224903 | 52 | 255 | 0.0 | 0.0 | 0.00 | 0.00 | 0.00 | 87 | 1026.5 |
| 20260905224404 | 52 | 255 | 0.0 | 0.0 | 0.00 | 0.00 | 0.00 | 87 | 1026.6 |
| 20260905223907 | 52 | 255 | 0.0 | 0.0 | 0.00 | 0.00 | 0.00 | 87 | 1026.7 |
| 20260905223404 | 52 | 255 | 0.0 | 0.0 | 0.00 | 0.00 | 0.00 | 87 | 1026.6 |
| 20260905222906 | 52 | 255 | 0.0 | 0.0 | 0.00 | 0.00 | 0.00 | 87 | 1026.7 |
| 20260905222405 | 52 | 255 | 0.0 | 0.0 | 0.00 | 0.00 | 0.00 | 86 | 1026.6 |
| 20260905221904 | 52 | 255 | 0.0 | 0.0 | 0.00 | 0.00 | 0.00 | 86 | 1026.5 |
| 20260905221403 | 52 | 255 | 0.0 | 0.0 | 0.00 | 0.00 | 0.00 | 86 | 1026.5 |
| 20260905220903 | 53 | 255 | 0.0 | 0.0 | 0.00 | 0.00 | 0.00 | 86 | 1026.5 |
| 20260905220403 | 53 | 255 | 0.0 | 0.0 | 0.00 | 0.00 | 0.00 | 85 | 1026.5 |
| 20260905215904 | 53 | 255 | 0.0 | 0.0 | 0.00 | 0.00 | 0.00 | 86 | 1026.5 |
| 20260905215405 | 53 | 255 | 0.0 | 0.0 | 0.00 | 0.00 | 0.00 | 86 | 1026.5 |
| 20260905214905 | 53 | 255 | 0.0 | 0.0 | 0.00 | 0.00 | 0.00 | 85 | 1026.4 |
| 20260905214743 | 53 | 255 | 0.0 | 0.0 | 0.00 | 0.00 | 0.00 | 85 | 1026.3 |
| 20260905214318 | 54 | 254 | 0.0 | 0.0 | 0.00 | 0.00 | 0.00 | 85 | 1026.4 |
| 20260905214311 | 53 | 254 | 0.0 | 0.0 | 0.00 | 0.00 | 0.00 | 85 | 1026.4 |
| 20260905213537 | 53 | 254 | 0.0 | 0.0 | 0.00 | 0.00 | 0.00 | 85 | 1026.4 |
| 20260905213449 | 53 | 255 | 0.0 | 0.0 | 0.00 | 0.00 | 0.00 | 85 | 1026.4 |
| 20260905211905 | 54 | 254 | 0.0 | 0.0 | 0.00 | 0.00 | 0.00 | 85 | 1026.4 |
| 20260905211406 | 54 | 254 | 0.0 | 0.0 | 0.00 | 0.00 | 0.00 | 84 | 1026.4 |
| 20260905210905 | 54 | 255 | 0.0 | 1.7 | 0.00 | 0.00 | 0.00 | 84 | 1026.4 |
| 20260905210404 | 54 | 255 | 0.0 | 2.6 | 0.00 | 0.00 | 0.00 | 84 | 1026.4 |
| 20260905205903 | 54 | 255 | 1.7 | 2.6 | 0.00 | 0.00 | 0.00 | 84 | 1026.5 |
| 20260905205642 | 55 | 321 | 0.0 | 0.9 | 0.00 | 0.00 | 0.00 | 83 | 1026.3 |
| 20260905205530 | 55 | 255 | 0.0 | 2.6 | 0.00 | 0.00 | 0.00 | 84 | 1026.3 |
| 20260905204403 | 55 | 321 | 0.0 | 2.6 | 0.00 | 0.00 | 0.00 | 83 | 1026.2 |
| 20260905203904 | 55 | 321 | 1.7 | 2.6 | 0.00 | 0.00 | 0.00 | 83 | 1026.3 |
| 20260905203757 | 55 | 321 | 1.7 | 2.6 | 0.00 | 0.00 | 0.00 | 83 | 1026.1 |
| 20260905202904 | 55 | 321 | 0.0 | 0.0 | 0.00 | 0.00 | 0.00 | 82 | 1026.1 |
| 20260905202405 | 55 | 321 | 0.0 | 0.0 | 0.00 | 0.00 | 0.00 | 82 | 1026.0 |
| 20260905201905 | 56 | 321 | 0.0 | 0.0 | 0.00 | 0.00 | 0.00 | 82 | 1026.0 |
| 20260905201405 | 56 | 321 | 0.0 | 0.0 | 0.00 | 0.00 | 0.00 | 82 | 1026.0 |
| 20260905200906 | 56 | 321 | 0.0 | 0.0 | 0.00 | 0.00 | 0.00 | 82 | 1026.0 |
| 20260905200404 | 56 | 323 | 0.0 | 0.0 | 0.00 | 0.00 | 0.00 | 81 | 1026.0 |
| 20260905195904 | 57 | 323 | 0.0 | 0.0 | 0.00 | 0.00 | 0.00 | 80 | 1025.9 |
| 20260905195755 | 57 | 323 | 0.0 | 0.0 | 0.00 | 0.00 | 0.00 | 80 | 1025.9 |
| 20260905195248 | 57 | 321 | 0.0 | 0.0 | 0.00 | 0.00 | 0.00 | 79 | 1026.0 |
| 20260905194406 | 57 | 321 | 0.0 | 0.0 | 0.00 | 0.00 | 0.00 | 79 | 1026.0 |
| 20260905194253 | 58 | 321 | 0.0 | 0.0 | 0.00 | 0.00 | 0.00 | 79 | 1026.0 |
| 20260905193404 | 58 | 321 | 0.0 | 0.0 | 0.00 | 0.00 | 0.00 | 78 | 1026.0 |
| 20260905192905 | 58 | 321 | 0.0 | 0.0 | 0.00 | 0.00 | 0.00 | 78 | 1026.0 |
| 20260905192644 | 59 | 321 | 0.0 | 0.0 | 0.00 | 0.00 | 0.00 | 77 | 1025.9 |
| 20260905192533 | 58 | 321 | 0.0 | 0.0 | 0.00 | 0.00 | 0.00 | 77 | 1025.9 |
| 20260905191404 | 59 | 321 | 0.0 | 0.0 | 0.00 | 0.00 | 0.00 | 76 | 1026.0 |
| 20260905190903 | 60 | 321 | 0.0 | 0.0 | 0.00 | 0.00 | 0.00 | 75 | 1025.8 |
| 20260905190404 | 60 | 321 | 0.0 | 0.0 | 0.00 | 0.00 | 0.00 | 74 | 1025.7 |
| 20260905190240 | 60 | 321 | 0.0 | 0.0 | 0.00 | 0.00 | 0.00 | 73 | 1025.8 |
| 20260905185404 | 61 | 321 | 0.0 | 2.6 | 0.00 | 0.00 | 0.00 | 72 | 1025.8 |
| 20260905184904 | 61 | 321 | 0.9 | 2.6 | 0.00 | 0.00 | 0.00 | 72 | 1025.6 |
| 20260905184402 | 61 | 323 | 1.7 | 3.5 | 0.00 | 0.00 | 0.00 | 71 | 1025.7 |
| 20260905183903 | 62 | 323 | 1.7 | 3.5 | 0.00 | 0.00 | 0.00 | 70 | 1025.7 |
| 20260905183757 | 62 | 320 | 0.9 | 3.5 | 0.00 | 0.00 | 0.00 | 69 | 1025.7 |
| 20260905182905 | 62 | 320 | 0.9 | 6.1 | 0.00 | 0.00 | 0.00 | 69 | 1025.6 |
| 20260905182404 | 63 | 323 | 2.6 | 6.1 | 0.00 | 0.00 | 0.00 | 69 | 1025.6 |
| 20260905181905 | 63 | 323 | 2.6 | 5.2 | 0.00 | 0.00 | 0.00 | 68 | 1025.5 |
| 20260905181405 | 63 | 340 | 3.5 | 5.2 | 0.00 | 0.00 | 0.00 | 68 | 1025.5 |
| 20260905180903 | 64 | 336 | 2.6 | 5.2 | 0.00 | 0.00 | 0.00 | 67 | 1025.5 |
| 20260905180403 | 64 | 327 | 2.6 | 6.1 | 0.00 | 0.00 | 0.00 | 66 | 1025.5 |
| 20260905175903 | 64 | 336 | 3.5 | 7.8 | 0.00 | 0.00 | 0.00 | 66 | 1025.5 |
| 20260905175405 | 64 | 330 | 3.5 | 8.7 | 0.00 | 0.00 | 0.00 | 66 | 1025.4 |
| 20260905174905 | 65 | 0 | 3.5 | 9.6 | 0.00 | 0.00 | 0.00 | 65 | 1025.4 |
| 20260905174403 | 65 | 320 | 4.3 | 10.4 | 0.00 | 0.00 | 0.00 | 64 | 1025.3 |
| 20260905173902 | 65 | 303 | 6.1 | 11.3 | 0.00 | 0.00 | 0.00 | 64 | 1025.4 |
| 20260905173748 | 65 | 338 | 5.2 | 11.3 | 0.00 | 0.00 | 0.00 | 63 | 1025.4 |
| 20260905172916 | 65 | 324 | 5.2 | 10.4 | 0.00 | 0.00 | 0.00 | 63 | 1025.4 |
| 20260905172404 | 65 | 326 | 5.2 | 11.3 | 0.00 | 0.00 | 0.00 | 62 | 1025.4 |
| 20260905171901 | 66 | 336 | 6.1 | 11.3 | 0.00 | 0.00 | 0.00 | 62 | 1025.3 |
| 20260905171402 | 66 | 338 | 3.5 | 9.6 | 0.00 | 0.00 | 0.00 | 62 | 1025.3 |
| 20260905171247 | 66 | 324 | 3.5 | 10.4 | 0.00 | 0.00 | 0.00 | 62 | 1025.4 |
| 20260905170402 | 66 | 0 | 5.2 | 10.4 | 0.00 | 0.00 | 0.00 | 61 | 1025.3 |
| 20260905165904 | 66 | 329 | 1.7 | 10.4 | 0.00 | 0.00 | 0.00 | 62 | 1025.2 |
| 20260905165401 | 66 | 313 | 4.3 | 10.4 | 0.00 | 0.00 | 0.00 | 62 | 1025.2 |
| 20260905164901 | 66 | 321 | 5.2 | 12.2 | 0.00 | 0.00 | 0.00 | 61 | 1025.1 |
| 20260905164401 | 66 | 271 | 7.0 | 12.2 | 0.00 | 0.00 | 0.00 | 61 | 1025.1 |
| 20260905163901 | 66 | 320 | 5.2 | 12.2 | 0.00 | 0.00 | 0.00 | 61 | 1024.9 |
| 20260905163403 | 67 | 21 | 7.0 | 11.3 | 0.00 | 0.00 | 0.00 | 61 | 1025.1 |
| 20260905162900 | 67 | 306 | 6.1 | 11.3 | 0.00 | 0.00 | 0.00 | 62 | 1025.0 |
| 20260905162401 | 67 | 336 | 5.2 | 11.3 | 0.00 | 0.00 | 0.00 | 62 | 1024.9 |
| 20260905161902 | 67 | 0 | 4.3 | 11.3 | 0.00 | 0.00 | 0.00 | 60 | 1024.8 |
| 20260905161402 | 67 | 3 | 4.3 | 12.2 | 0.00 | 0.00 | 0.00 | 60 | 1024.8 |
| 20260905160900 | 67 | 299 | 5.2 | 12.2 | 0.00 | 0.00 | 0.00 | 60 | 1024.8 |
| 20260905160400 | 67 | 281 | 5.2 | 13.0 | 0.00 | 0.00 | 0.00 | 59 | 1024.7 |
| 20260905155902 | 68 | 310 | 5.2 | 13.0 | 0.00 | 0.00 | 0.00 | 59 | 1024.8 |
| 20260905155401 | 68 | 340 | 2.6 | 14.8 | 0.00 | 0.00 | 0.00 | 59 | 1024.8 |
| 20260905154900 | 68 | 28 | 5.2 | 14.8 | 0.00 | 0.00 | 0.00 | 58 | 1024.7 |
| 20260905154402 | 68 | 357 | 7.0 | 15.6 | 0.00 | 0.00 | 0.00 | 59 | 1024.7 |
| 20260905153901 | 68 | 331 | 9.6 | 15.6 | 0.00 | 0.00 | 0.00 | 58 | 1024.6 |
| 20260905153749 | 69 | 293 | 3.5 | 12.2 | 0.00 | 0.00 | 0.00 | 57 | 1024.5 |
| 20260905152859 | 69 | 340 | 7.0 | 13.0 | 0.00 | 0.00 | 0.00 | 57 | 1024.5 |
| 20260905152400 | 69 | 336 | 8.7 | 13.0 | 0.00 | 0.00 | 0.00 | 57 | 1024.5 |
| 20260905151859 | 69 | 0 | 7.0 | 10.4 | 0.00 | 0.00 | 0.00 | 57 | 1024.3 |
| 20260905151359 | 69 | 0 | 5.2 | 13.9 | 0.00 | 0.00 | 0.00 | 57 | 1024.3 |
| 20260905150900 | 69 | 316 | 7.8 | 14.8 | 0.00 | 0.00 | 0.00 | 57 | 1024.2 |
| 20260905150400 | 69 | 3 | 8.7 | 14.8 | 0.00 | 0.00 | 0.00 | 58 | 1024.2 |
| 20260905150148 | 69 | 320 | 7.0 | 13.9 | 0.00 | 0.01 | 0.00 | 58 | 1024.2 |
| 20260905150029 | 68 | 316 | 7.0 | 13.9 | 0.00 | 0.01 | 0.00 | 58 | 1024.2 |
| 20260905144858 | 69 | 340 | 7.8 | 13.0 | 0.00 | 0.01 | 0.00 | 58 | 1024.3 |
| 20260905144359 | 69 | 298 | 7.0 | 12.2 | 0.00 | 0.02 | 0.00 | 59 | 1024.2 |
| 20260905143901 | 69 | 336 | 6.1 | 9.6 | 0.00 | 0.02 | 0.00 | 58 | 1024.2 |
| 20260905143359 | 69 | 312 | 4.3 | 13.9 | 0.00 | 0.02 | 0.00 | 58 | 1024.2 |
| 20260905142859 | 69 | 334 | 5.2 | 13.9 | 0.00 | 0.02 | 0.00 | 60 | 1024.1 |
| 20260905142358 | 68 | 0 | 4.3 | 13.9 | 0.00 | 0.02 | 0.00 | 60 | 1024.0 |
| 20260905141858 | 68 | 300 | 5.2 | 15.6 | 0.00 | 0.02 | 0.00 | 54 | 1023.9 |
| 20260905141742 | 69 | 324 | 8.7 | 15.6 | 0.00 | 0.02 | 0.00 | 54 | 1024.0 |
| 20260905140858 | 69 | 331 | 7.0 | 18.2 | 0.00 | 0.02 | 0.00 | 52 | 1023.9 |
| 20260905140359 | 69 | 336 | 7.8 | 18.2 | 0.00 | 0.02 | 0.00 | 51 | 1023.9 |
| 20260905135858 | 69 | 274 | 7.8 | 16.5 | 0.00 | 0.02 | 0.00 | 53 | 1023.9 |
| 20260905135357 | 68 | 233 | 7.8 | 16.5 | 0.00 | 0.02 | 0.00 | 56 | 1023.8 |
| 20260905134857 | 68 | 351 | 7.0 | 13.0 | 0.00 | 0.02 | 0.00 | 60 | 1023.9 |
| 20260905134739 | 68 | 340 | 7.8 | 13.0 | 0.00 | 0.02 | 0.00 | 58 | 1023.8 |
| 20260905133856 | 68 | 268 | 6.1 | 11.3 | 0.00 | 0.02 | 0.00 | 60 | 1023.7 |
| 20260905133357 | 68 | 265 | 5.2 | 10.4 | 0.00 | 0.03 | 0.00 | 64 | 1023.7 |
| 20260905132858 | 68 | 269 | 6.1 | 10.4 | 0.00 | 0.03 | 0.00 | 62 | 1023.6 |
| 20260905132356 | 68 | 324 | 3.5 | 13.0 | 0.00 | 0.03 | 0.00 | 60 | 1023.5 |
| 20260905131857 | 69 | 313 | 6.1 | 13.0 | 0.00 | 0.04 | 0.00 | 59 | 1023.5 |
| 20260905131357 | 69 | 341 | 5.2 | 13.0 | 0.00 | 0.04 | 0.00 | 62 | 1023.5 |
| 20260905130857 | 68 | 323 | 6.1 | 13.0 | 0.00 | 0.06 | 0.00 | 65 | 1023.4 |
| 20260905130355 | 67 | 314 | 4.3 | 12.2 | 0.00 | 0.06 | 0.00 | 62 | 1023.4 |
| 20260905125855 | 67 | 303 | 7.0 | 12.2 | 0.00 | 0.06 | 0.00 | 62 | 1023.4 |
| 20260905125356 | 67 | 350 | 5.2 | 12.2 | 0.00 | 0.06 | 0.00 | 63 | 1023.3 |
| 20260905124857 | 67 | 345 | 7.8 | 13.0 | 0.00 | 0.07 | 0.00 | 62 | 1023.4 |
| 20260905124356 | 67 | 354 | 6.1 | 13.0 | 0.00 | 0.07 | 0.00 | 62 | 1023.4 |
| 20260905123857 | 68 | 331 | 5.2 | 10.4 | 0.00 | 0.07 | 0.00 | 60 | 1023.2 |
| 20260905123750 | 69 | 314 | 4.3 | 10.4 | 0.00 | 0.07 | 0.00 | 60 | 1023.2 |
| 20260905122856 | 69 | 317 | 6.1 | 11.3 | 0.00 | 0.07 | 0.00 | 62 | 1023.1 |
| 20260905122355 | 69 | 323 | 6.1 | 11.3 | 0.00 | 0.07 | 0.00 | 61 | 1023.0 |
| 20260905121854 | 69 | 358 | 5.2 | 12.2 | 0.00 | 0.08 | 0.00 | 59 | 1023.0 |
| 20260905121742 | 71 | 350 | 6.1 | 12.2 | 0.00 | 0.08 | 0.00 | 57 | 1022.9 |
| 20260905120855 | 70 | 288 | 3.5 | 11.3 | 0.00 | 0.08 | 0.00 | 61 | 1022.9 |
| 20260905120355 | 70 | 290 | 7.0 | 11.3 | 0.00 | 0.08 | 0.00 | 60 | 1022.9 |
| 20260905115855 | 70 | 333 | 5.2 | 11.3 | 0.00 | 0.08 | 0.00 | 62 | 1022.8 |
| 20260905115354 | 69 | 327 | 5.2 | 11.3 | 0.00 | 0.08 | 0.00 | 62 | 1022.9 |
| 20260905114854 | 70 | 334 | 6.1 | 9.6 | 0.00 | 0.08 | 0.00 | 62 | 1022.9 |
| 20260905114356 | 68 | 310 | 6.1 | 12.2 | 0.00 | 0.08 | 0.00 | 65 | 1023.0 |
| 20260905114243 | 67 | 330 | 6.1 | 12.2 | 0.00 | 0.08 | 0.00 | 62 | 1022.9 |
| 20260905113353 | 69 | 326 | 6.1 | 12.2 | 0.00 | 0.08 | 0.00 | 60 | 1022.9 |
| 20260905112855 | 69 | 282 | 6.1 | 12.2 | 0.00 | 0.08 | 0.00 | 61 | 1022.7 |
| 20260905112354 | 69 | 354 | 7.8 | 13.0 | 0.00 | 0.08 | 0.00 | 60 | 1022.6 |
| 20260905111853 | 69 | 314 | 5.2 | 13.0 | 0.00 | 0.08 | 0.00 | 60 | 1022.5 |
| 20260905111741 | 70 | 264 | 4.3 | 13.0 | 0.00 | 0.08 | 0.00 | 59 | 1022.6 |
| 20260905111244 | 70 | 0 | 7.8 | 13.9 | 0.00 | 0.08 | 0.00 | 59 | 1022.7 |
| 20260905110353 | 70 | 292 | 7.0 | 15.6 | 0.00 | 0.08 | 0.00 | 62 | 1022.7 |
| 20260905105853 | 69 | 268 | 8.7 | 15.6 | 0.00 | 0.08 | 0.00 | 62 | 1022.7 |
| 20260905105352 | 67 | 262 | 7.0 | 12.2 | 0.00 | 0.10 | 0.00 | 63 | 1022.6 |
| 20260905104907 | 67 | 275 | 6.1 | 11.3 | 0.00 | 0.11 | 0.00 | 66 | 1022.7 |
| 20260905104352 | 67 | 324 | 3.5 | 11.3 | 0.00 | 0.11 | 0.00 | 67 | 1022.6 |
| 20260905104140 | 68 | 306 | 3.5 | 13.9 | 0.00 | 0.11 | 0.00 | 66 | 1022.4 |
| 20260905104024 | 67 | 309 | 6.1 | 11.3 | 0.00 | 0.11 | 0.00 | 66 | 1022.5 |